sensor_id;sensor_type;location;lat;lon;timestamp;temperature;humidity
44573;DHT22;31762;45.420;10.072;2022-09-28T00:04:58;17.30;99.90
44573;DHT22;31762;45.420;10.072;2022-09-28T00:10:00;17.30;99.90
44573;DHT22;31762;45.420;10.072;2022-09-28T00:15:02;17.20;99.90
44573;DHT22;31762;45.420;10.072;2022-09-28T00:20:04;17.10;99.90
44573;DHT22;31762;45.420;10.072;2022-09-28T00:25:06;17.10;99.90
44573;DHT22;31762;45.420;10.072;2022-09-28T00:30:08;17.10;99.90
44573;DHT22;31762;45.420;10.072;2022-09-28T00:35:10;17.20;99.90
44573;DHT22;31762;45.420;10.072;2022-09-28T00:40:12;17.10;99.90
44573;DHT22;31762;45.420;10.072;2022-09-28T00:45:14;17.10;99.90
44573;DHT22;31762;45.420;10.072;2022-09-28T00:50:33;17.00;99.90
44573;DHT22;31762;45.420;10.072;2022-09-28T00:55:45;16.90;99.90
44573;DHT22;31762;45.420;10.072;2022-09-28T01:00:48;16.80;99.90
44573;DHT22;31762;45.420;10.072;2022-09-28T01:05:51;16.90;99.90
44573;DHT22;31762;45.420;10.072;2022-09-28T01:10:54;16.90;99.90
44573;DHT22;31762;45.420;10.072;2022-09-28T01:16:07;16.80;99.90
44573;DHT22;31762;45.420;10.072;2022-09-28T01:21:22;16.60;99.90
44573;DHT22;31762;45.420;10.072;2022-09-28T01:31:35;16.90;99.90
44573;DHT22;31762;45.420;10.072;2022-09-28T01:36:44;16.60;99.90
44573;DHT22;31762;45.420;10.072;2022-09-28T01:41:49;16.60;99.90
44573;DHT22;31762;45.420;10.072;2022-09-28T01:46:52;16.70;99.90
44573;DHT22;31762;45.420;10.072;2022-09-28T01:52:19;16.70;99.90
44573;DHT22;31762;45.420;10.072;2022-09-28T01:57:32;16.60;99.90
44573;DHT22;31762;45.420;10.072;2022-09-28T02:02:59;16.70;99.90
44573;DHT22;31762;45.420;10.072;2022-09-28T02:08:28;16.50;99.90
44573;DHT22;31762;45.420;10.072;2022-09-28T02:13:41;16.50;99.90
44573;DHT22;31762;45.420;10.072;2022-09-28T02:18:44;16.60;99.90
44573;DHT22;31762;45.420;10.072;2022-09-28T02:23:54;16.60;99.90
44573;DHT22;31762;45.420;10.072;2022-09-28T02:28:57;16.50;99.90
44573;DHT22;31762;45.420;10.072;2022-09-28T02:33:59;16.60;99.90
44573;DHT22;31762;45.420;10.072;2022-09-28T02:39:01;16.50;99.90
44573;DHT22;31762;45.420;10.072;2022-09-28T03:10:22;16.20;99.90
44573;DHT22;31762;45.420;10.072;2022-09-28T03:15:30;16.10;99.90
44573;DHT22;31762;45.420;10.072;2022-09-28T03:20:32;16.20;99.90
44573;DHT22;31762;45.420;10.072;2022-09-28T03:25:34;16.30;99.90
44573;DHT22;31762;45.420;10.072;2022-09-28T03:30:36;16.20;99.90
44573;DHT22;31762;45.420;10.072;2022-09-28T03:35:37;16.00;99.90
44573;DHT22;31762;45.420;10.072;2022-09-28T03:40:39;16.00;99.90
44573;DHT22;31762;45.420;10.072;2022-09-28T03:45:41;16.30;99.90
44573;DHT22;31762;45.420;10.072;2022-09-28T03:50:43;16.20;99.90
44573;DHT22;31762;45.420;10.072;2022-09-28T03:55:45;16.00;99.90
44573;DHT22;31762;45.420;10.072;2022-09-28T04:00:47;16.20;99.90
44573;DHT22;31762;45.420;10.072;2022-09-28T04:05:50;15.80;99.90
44573;DHT22;31762;45.420;10.072;2022-09-28T04:10:56;16.10;99.90
44573;DHT22;31762;45.420;10.072;2022-09-28T04:15:59;15.70;99.90
44573;DHT22;31762;45.420;10.072;2022-09-28T04:21:03;15.70;99.90
44573;DHT22;31762;45.420;10.072;2022-09-28T04:26:08;15.60;99.90
44573;DHT22;31762;45.420;10.072;2022-09-28T04:31:16;15.70;99.90
44573;DHT22;31762;45.420;10.072;2022-09-28T04:36:18;15.70;99.90
44573;DHT22;31762;45.420;10.072;2022-09-28T04:41:20;15.50;99.90
44573;DHT22;31762;45.420;10.072;2022-09-28T04:46:22;15.90;99.90
44573;DHT22;31762;45.420;10.072;2022-09-28T04:51:24;16.30;99.90
44573;DHT22;31762;45.420;10.072;2022-09-28T04:56:26;16.10;99.90
44573;DHT22;31762;45.420;10.072;2022-09-28T05:01:27;15.70;99.90
44573;DHT22;31762;45.420;10.072;2022-09-28T05:06:29;16.00;99.90
44573;DHT22;31762;45.420;10.072;2022-09-28T05:11:31;16.00;99.90
44573;DHT22;31762;45.420;10.072;2022-09-28T05:16:32;15.90;99.90
44573;DHT22;31762;45.420;10.072;2022-09-28T05:21:34;16.10;99.90
44573;DHT22;31762;45.420;10.072;2022-09-28T05:26:36;16.30;99.90
44573;DHT22;31762;45.420;10.072;2022-09-28T05:31:38;16.30;99.90
44573;DHT22;31762;45.420;10.072;2022-09-28T05:36:40;16.40;99.90
44573;DHT22;31762;45.420;10.072;2022-09-28T05:41:42;16.40;99.90
44573;DHT22;31762;45.420;10.072;2022-09-28T05:46:43;16.40;99.90
44573;DHT22;31762;45.420;10.072;2022-09-28T05:51:45;16.20;99.90
44573;DHT22;31762;45.420;10.072;2022-09-28T05:56:47;16.10;99.90
44573;DHT22;31762;45.420;10.072;2022-09-28T06:01:48;16.20;99.90
44573;DHT22;31762;45.420;10.072;2022-09-28T06:06:50;16.00;99.90
44573;DHT22;31762;45.420;10.072;2022-09-28T06:11:52;16.10;99.90
44573;DHT22;31762;45.420;10.072;2022-09-28T06:16:53;16.30;99.90
44573;DHT22;31762;45.420;10.072;2022-09-28T06:21:55;16.40;99.90
44573;DHT22;31762;45.420;10.072;2022-09-28T06:27:00;16.50;99.90
44573;DHT22;31762;45.420;10.072;2022-09-28T06:32:01;16.30;99.90
44573;DHT22;31762;45.420;10.072;2022-09-28T06:37:03;16.60;99.90
44573;DHT22;31762;45.420;10.072;2022-09-28T06:42:05;16.80;99.90
44573;DHT22;31762;45.420;10.072;2022-09-28T06:47:06;16.50;99.90
44573;DHT22;31762;45.420;10.072;2022-09-28T06:52:08;16.60;99.90
44573;DHT22;31762;45.420;10.072;2022-09-28T06:57:10;16.70;99.90
44573;DHT22;31762;45.420;10.072;2022-09-28T07:02:12;16.60;99.90
44573;DHT22;31762;45.420;10.072;2022-09-28T07:07:14;16.60;99.90
44573;DHT22;31762;45.420;10.072;2022-09-28T07:12:15;16.80;99.90
44573;DHT22;31762;45.420;10.072;2022-09-28T07:17:17;17.00;99.90
44573;DHT22;31762;45.420;10.072;2022-09-28T07:22:19;17.10;99.90
44573;DHT22;31762;45.420;10.072;2022-09-28T07:27:35;17.20;99.90
44573;DHT22;31762;45.420;10.072;2022-09-28T07:32:36;17.30;99.90
44573;DHT22;31762;45.420;10.072;2022-09-28T07:37:38;17.40;99.90
44573;DHT22;31762;45.420;10.072;2022-09-28T07:42:40;17.50;99.90
44573;DHT22;31762;45.420;10.072;2022-09-28T07:47:42;17.40;99.90
44573;DHT22;31762;45.420;10.072;2022-09-28T07:52:43;17.40;99.90
44573;DHT22;31762;45.420;10.072;2022-09-28T07:57:45;17.40;99.90
44573;DHT22;31762;45.420;10.072;2022-09-28T08:02:47;17.40;99.90
44573;DHT22;31762;45.420;10.072;2022-09-28T08:07:48;17.50;99.90
44573;DHT22;31762;45.420;10.072;2022-09-28T08:12:57;17.50;99.90
44573;DHT22;31762;45.420;10.072;2022-09-28T08:18:03;17.60;99.90
44573;DHT22;31762;45.420;10.072;2022-09-28T08:23:07;17.80;99.90
44573;DHT22;31762;45.420;10.072;2022-09-28T08:28:08;17.80;99.90
44573;DHT22;31762;45.420;10.072;2022-09-28T08:33:12;17.80;99.90
44573;DHT22;31762;45.420;10.072;2022-09-28T08:38:14;18.00;99.90
44573;DHT22;31762;45.420;10.072;2022-09-28T08:48:52;18.30;99.90
44573;DHT22;31762;45.420;10.072;2022-09-28T09:04:48;18.60;99.90
44573;DHT22;31762;45.420;10.072;2022-09-28T09:10:03;18.90;99.90
44573;DHT22;31762;45.420;10.072;2022-09-28T09:20:42;19.70;99.90
44573;DHT22;31762;45.420;10.072;2022-09-28T09:25:51;19.90;99.90
44573;DHT22;31762;45.420;10.072;2022-09-28T09:37:16;20.40;99.90
44573;DHT22;31762;45.420;10.072;2022-09-28T09:48:02;20.80;99.90
44573;DHT22;31762;45.420;10.072;2022-09-28T09:53:15;20.40;99.90
44573;DHT22;31762;45.420;10.072;2022-09-28T09:58:29;19.90;99.90
44573;DHT22;31762;45.420;10.072;2022-09-28T10:03:35;20.40;99.90
44573;DHT22;31762;45.420;10.072;2022-09-28T10:08:47;20.90;99.90
44573;DHT22;31762;45.420;10.072;2022-09-28T10:13:50;21.10;99.90
44573;DHT22;31762;45.420;10.072;2022-09-28T10:18:52;20.90;99.90
44573;DHT22;31762;45.420;10.072;2022-09-28T10:23:59;20.60;99.90
44573;DHT22;31762;45.420;10.072;2022-09-28T10:29:03;20.70;99.90
44573;DHT22;31762;45.420;10.072;2022-09-28T10:34:07;21.50;99.90
44573;DHT22;31762;45.420;10.072;2022-09-28T10:39:30;21.90;99.90
44573;DHT22;31762;45.420;10.072;2022-09-28T10:49:58;20.90;99.90
44573;DHT22;31762;45.420;10.072;2022-09-28T10:55:29;21.00;99.90
44573;DHT22;31762;45.420;10.072;2022-09-28T11:00:41;20.90;99.90
44573;DHT22;31762;45.420;10.072;2022-09-28T11:06:02;20.90;99.90
44573;DHT22;31762;45.420;10.072;2022-09-28T11:11:10;20.80;99.90
44573;DHT22;31762;45.420;10.072;2022-09-28T11:16:38;20.80;99.90
44573;DHT22;31762;45.420;10.072;2022-09-28T11:21:42;20.90;99.90
44573;DHT22;31762;45.420;10.072;2022-09-28T11:26:49;21.10;99.90
44573;DHT22;31762;45.420;10.072;2022-09-28T11:31:51;20.60;99.90
44573;DHT22;31762;45.420;10.072;2022-09-28T11:37:04;20.60;99.90
44573;DHT22;31762;45.420;10.072;2022-09-28T11:53:09;21.20;99.90
44573;DHT22;31762;45.420;10.072;2022-09-28T11:59:19;21.10;99.90
44573;DHT22;31762;45.420;10.072;2022-09-28T12:03:54;21.10;99.90
44573;DHT22;31762;45.420;10.072;2022-09-28T12:09:05;21.40;99.90
44573;DHT22;31762;45.420;10.072;2022-09-28T12:14:22;21.30;99.90
44573;DHT22;31762;45.420;10.072;2022-09-28T12:19:42;21.30;99.90
44573;DHT22;31762;45.420;10.072;2022-09-28T12:24:54;21.10;99.90
44573;DHT22;31762;45.420;10.072;2022-09-28T12:30:16;21.10;99.90
44573;DHT22;31762;45.420;10.072;2022-09-28T12:35:27;20.90;99.90
44573;DHT22;31762;45.420;10.072;2022-09-28T12:45:41;21.40;99.90
44573;DHT22;31762;45.420;10.072;2022-09-28T12:51:50;21.30;99.90
44573;DHT22;31762;45.420;10.072;2022-09-28T13:02:00;21.00;99.90
44573;DHT22;31762;45.420;10.072;2022-09-28T13:07:19;20.90;99.90
44573;DHT22;31762;45.420;10.072;2022-09-28T13:18:07;20.40;99.90
44573;DHT22;31762;45.420;10.072;2022-09-28T13:28:13;20.40;99.90
44573;DHT22;31762;45.420;10.072;2022-09-28T13:33:22;20.60;99.90
44573;DHT22;31762;45.420;10.072;2022-09-28T13:43:33;20.60;99.90
44573;DHT22;31762;45.420;10.072;2022-09-28T13:48:54;20.50;99.90
44573;DHT22;31762;45.420;10.072;2022-09-28T13:54:06;20.40;99.90
44573;DHT22;31762;45.420;10.072;2022-09-28T13:59:22;20.30;99.90
44573;DHT22;31762;45.420;10.072;2022-09-28T14:04:58;20.40;99.90
44573;DHT22;31762;45.420;10.072;2022-09-28T14:10:20;20.50;99.90
44573;DHT22;31762;45.420;10.072;2022-09-28T14:20:30;21.20;99.90
44573;DHT22;31762;45.420;10.072;2022-09-28T14:25:34;21.30;99.90
44573;DHT22;31762;45.420;10.072;2022-09-28T14:35:39;21.00;99.90
44573;DHT22;31762;45.420;10.072;2022-09-28T14:56:27;21.30;99.90
44573;DHT22;31762;45.420;10.072;2022-09-28T15:01:34;21.10;99.90
44573;DHT22;31762;45.420;10.072;2022-09-28T15:06:47;20.60;99.90
44573;DHT22;31762;45.420;10.072;2022-09-28T15:11:48;20.70;99.90
44573;DHT22;31762;45.420;10.072;2022-09-28T15:16:50;20.80;99.90
44573;DHT22;31762;45.420;10.072;2022-09-28T15:21:52;20.70;99.90
44573;DHT22;31762;45.420;10.072;2022-09-28T15:26:54;20.50;99.90
44573;DHT22;31762;45.420;10.072;2022-09-28T15:31:57;20.30;99.90
44573;DHT22;31762;45.420;10.072;2022-09-28T15:36:58;20.00;99.90
44573;DHT22;31762;45.420;10.072;2022-09-28T15:42:00;20.00;99.90
44573;DHT22;31762;45.420;10.072;2022-09-28T15:47:14;19.70;99.90
44573;DHT22;31762;45.420;10.072;2022-09-28T15:52:39;19.60;99.90
44573;DHT22;31762;45.420;10.072;2022-09-28T15:57:43;19.50;99.90
44573;DHT22;31762;45.420;10.072;2022-09-28T16:03:03;19.40;99.90
44573;DHT22;31762;45.420;10.072;2022-09-28T16:08:42;19.40;99.90
44573;DHT22;31762;45.420;10.072;2022-09-28T16:13:58;19.40;99.90
44573;DHT22;31762;45.420;10.072;2022-09-28T16:19:01;19.30;99.90
44573;DHT22;31762;45.420;10.072;2022-09-28T16:24:03;19.10;99.90
44573;DHT22;31762;45.420;10.072;2022-09-28T16:29:26;19.20;99.90
44573;DHT22;31762;45.420;10.072;2022-09-28T16:34:28;19.10;99.90
44573;DHT22;31762;45.420;10.072;2022-09-28T16:39:31;19.10;99.90
44573;DHT22;31762;45.420;10.072;2022-09-28T16:44:33;19.20;99.90
44573;DHT22;31762;45.420;10.072;2022-09-28T16:49:38;19.30;99.90
44573;DHT22;31762;45.420;10.072;2022-09-28T16:54:40;19.20;99.90
44573;DHT22;31762;45.420;10.072;2022-09-28T16:59:41;19.30;99.90
44573;DHT22;31762;45.420;10.072;2022-09-28T17:04:43;19.30;99.90
44573;DHT22;31762;45.420;10.072;2022-09-28T17:09:48;19.10;99.90
44573;DHT22;31762;45.420;10.072;2022-09-28T17:14:50;19.20;99.90
44573;DHT22;31762;45.420;10.072;2022-09-28T17:19:52;19.20;99.90
44573;DHT22;31762;45.420;10.072;2022-09-28T17:24:53;19.00;99.90
44573;DHT22;31762;45.420;10.072;2022-09-28T17:29:55;19.10;99.90
44573;DHT22;31762;45.420;10.072;2022-09-28T17:34:57;18.90;99.90
44573;DHT22;31762;45.420;10.072;2022-09-28T17:40:24;18.80;99.90
44573;DHT22;31762;45.420;10.072;2022-09-28T17:45:28;18.80;99.90
44573;DHT22;31762;45.420;10.072;2022-09-28T17:50:33;18.70;99.90
44573;DHT22;31762;45.420;10.072;2022-09-28T17:55:37;18.70;99.90
44573;DHT22;31762;45.420;10.072;2022-09-28T18:00:39;18.90;99.90
44573;DHT22;31762;45.420;10.072;2022-09-28T18:05:45;18.90;99.90
44573;DHT22;31762;45.420;10.072;2022-09-28T18:10:56;18.70;99.90
44573;DHT22;31762;45.420;10.072;2022-09-28T18:15:58;18.40;99.90
44573;DHT22;31762;45.420;10.072;2022-09-28T18:21:00;18.30;99.90
44573;DHT22;31762;45.420;10.072;2022-09-28T18:26:10;18.20;99.90
44573;DHT22;31762;45.420;10.072;2022-09-28T18:31:13;17.90;99.90
44573;DHT22;31762;45.420;10.072;2022-09-28T18:36:17;17.90;99.90
44573;DHT22;31762;45.420;10.072;2022-09-28T18:41:20;17.90;99.90
44573;DHT22;31762;45.420;10.072;2022-09-28T18:46:21;18.10;99.90
44573;DHT22;31762;45.420;10.072;2022-09-28T18:51:24;18.20;99.90
44573;DHT22;31762;45.420;10.072;2022-09-28T18:56:29;18.30;99.90
44573;DHT22;31762;45.420;10.072;2022-09-28T19:01:34;18.20;99.90
44573;DHT22;31762;45.420;10.072;2022-09-28T19:06:40;18.20;99.90
44573;DHT22;31762;45.420;10.072;2022-09-28T19:11:44;17.90;99.90
44573;DHT22;31762;45.420;10.072;2022-09-28T19:16:48;17.90;99.90
44573;DHT22;31762;45.420;10.072;2022-09-28T19:21:50;17.90;99.90
44573;DHT22;31762;45.420;10.072;2022-09-28T19:26:53;18.00;99.90
44573;DHT22;31762;45.420;10.072;2022-09-28T19:31:55;17.80;99.90
44573;DHT22;31762;45.420;10.072;2022-09-28T19:36:57;17.90;99.90
44573;DHT22;31762;45.420;10.072;2022-09-28T19:42:01;17.70;99.90
44573;DHT22;31762;45.420;10.072;2022-09-28T19:47:06;18.00;99.90
44573;DHT22;31762;45.420;10.072;2022-09-28T19:52:11;17.90;99.90
44573;DHT22;31762;45.420;10.072;2022-09-28T19:57:16;17.80;99.90
44573;DHT22;31762;45.420;10.072;2022-09-28T20:02:17;17.90;99.90
44573;DHT22;31762;45.420;10.072;2022-09-28T20:07:20;17.90;99.90
44573;DHT22;31762;45.420;10.072;2022-09-28T20:12:23;18.00;99.90
44573;DHT22;31762;45.420;10.072;2022-09-28T20:17:25;17.90;99.90
44573;DHT22;31762;45.420;10.072;2022-09-28T20:22:28;17.70;99.90
44573;DHT22;31762;45.420;10.072;2022-09-28T20:27:31;17.60;99.90
44573;DHT22;31762;45.420;10.072;2022-09-28T20:32:33;17.60;99.90
44573;DHT22;31762;45.420;10.072;2022-09-28T20:37:35;17.70;99.90
44573;DHT22;31762;45.420;10.072;2022-09-28T20:42:37;17.70;99.90
44573;DHT22;31762;45.420;10.072;2022-09-28T20:47:40;17.60;99.90
44573;DHT22;31762;45.420;10.072;2022-09-28T20:52:42;17.50;99.90
44573;DHT22;31762;45.420;10.072;2022-09-28T20:57:44;17.40;99.90
44573;DHT22;31762;45.420;10.072;2022-09-28T21:02:51;17.10;99.90
44573;DHT22;31762;45.420;10.072;2022-09-28T21:07:56;17.50;99.90
44573;DHT22;31762;45.420;10.072;2022-09-28T21:13:00;17.60;99.90
44573;DHT22;31762;45.420;10.072;2022-09-28T21:18:01;17.50;99.90
44573;DHT22;31762;45.420;10.072;2022-09-28T21:23:05;17.60;99.90
44573;DHT22;31762;45.420;10.072;2022-09-28T21:28:08;17.40;99.90
44573;DHT22;31762;45.420;10.072;2022-09-28T21:33:11;17.10;99.90
44573;DHT22;31762;45.420;10.072;2022-09-28T21:38:13;17.10;99.90
44573;DHT22;31762;45.420;10.072;2022-09-28T21:43:16;17.00;99.90
44573;DHT22;31762;45.420;10.072;2022-09-28T21:48:20;17.10;99.90
44573;DHT22;31762;45.420;10.072;2022-09-28T21:53:24;16.90;99.90
44573;DHT22;31762;45.420;10.072;2022-09-28T21:58:29;16.90;99.90
44573;DHT22;31762;45.420;10.072;2022-09-28T22:03:34;16.90;99.90
44573;DHT22;31762;45.420;10.072;2022-09-28T22:08:36;17.00;99.90
44573;DHT22;31762;45.420;10.072;2022-09-28T22:18:42;17.20;99.90
44573;DHT22;31762;45.420;10.072;2022-09-28T22:23:44;17.40;99.90
44573;DHT22;31762;45.420;10.072;2022-09-28T22:28:48;17.30;99.90
44573;DHT22;31762;45.420;10.072;2022-09-28T22:33:50;17.30;99.90
44573;DHT22;31762;45.420;10.072;2022-09-28T22:38:56;17.30;99.90
44573;DHT22;31762;45.420;10.072;2022-09-28T22:43:58;17.40;99.90
44573;DHT22;31762;45.420;10.072;2022-09-28T22:49:00;17.40;99.90
44573;DHT22;31762;45.420;10.072;2022-09-28T22:54:01;17.40;99.90
44573;DHT22;31762;45.420;10.072;2022-09-28T22:59:03;17.40;99.90
44573;DHT22;31762;45.420;10.072;2022-09-28T23:04:05;17.20;99.90
44573;DHT22;31762;45.420;10.072;2022-09-28T23:09:09;16.90;99.90
44573;DHT22;31762;45.420;10.072;2022-09-28T23:14:11;17.00;99.90
44573;DHT22;31762;45.420;10.072;2022-09-28T23:19:12;17.10;99.90
44573;DHT22;31762;45.420;10.072;2022-09-28T23:24:14;17.20;99.90
44573;DHT22;31762;45.420;10.072;2022-09-28T23:29:16;17.00;99.90
44573;DHT22;31762;45.420;10.072;2022-09-28T23:34:18;16.40;99.90
44573;DHT22;31762;45.420;10.072;2022-09-28T23:39:19;16.40;99.90
44573;DHT22;31762;45.420;10.072;2022-09-28T23:44:21;16.20;99.90
44573;DHT22;31762;45.420;10.072;2022-09-28T23:49:23;16.20;99.90
44573;DHT22;31762;45.420;10.072;2022-09-28T23:54:24;16.30;99.90
44573;DHT22;31762;45.420;10.072;2022-09-28T23:59:26;16.10;99.90
